Gaschem Phoenix — ELUO6 — position and weather

sailwx.info

Track history (hours):
 
Tides and Currents Weather Stations Pressure Air Temp Water Temp Dewpoint Dewpoint Depression Visibility Wind Speed Wind Dir Waves Ship Positions

Gaschem Phoenix

Last reported at 2014-Oct-25 18:11 UTC. Time now 2014-Oct-25 22:53 UTC.
Position N 35°33' E 139°58'.

Length 100 m; draft 4.6 m.

Type: Ship. MMSI: 636090235.

Date/timePositionNaut miles runAvg speedWind from/ knotsBaromVisibWave heightAir tempDewpointWater temp
2014-Oct-25 18:11N 35°33' E 139°58'0 0.0
2014-Oct-25 17:29N 35°33' E 139°58'6 6.6
2014-Oct-25 16:34N 35°29' E 139°53'1312.5
2014-Oct-25 15:33N 35°19' E 139°44'1110.9
2014-Oct-25 14:33N 35°08' E 139°46'10 9.1
2014-Oct-25 13:26N 35°01' E 139°38'  
2014-Oct-18 19:23N 35°06' E 139°43'1012.0
2014-Oct-18 18:34N 35°15' E 139°46'1110.6
2014-Oct-18 17:34N 35°26' E 139°45'1313.0
2014-Oct-18 16:34N 35°31' E 139°60'0 0.0
2014-Oct-18 03:28N 35°31' E 140°00'1 0.9
2014-Oct-18 02:13N 35°31' E 139°59'0 0.0
2014-Oct-18 00:06N 35°31' E 139°59'0 0.0
2014-Oct-17 22:32N 35°31' E 139°59'0 0.1
2014-Oct-17 21:32N 35°31' E 139°59'0 0.2
2014-Oct-17 19:33N 35°30' E 139°59'1111.6
2014-Oct-17 18:34N 35°25' E 139°47'1110.9
2014-Oct-17 17:34N 35°14' E 139°47'1010.2
2014-Oct-17 16:34N 35°04' E 139°43'  
Track history (hours):
 
Tides and Currents Weather Stations Pressure Air Temp Water Temp Dewpoint Dewpoint Depression Visibility Wind Speed Wind Dir Waves Ship Positions

Gaschem Phoenix

Last reported at 2014-Oct-25 18:11 UTC. Time now 2014-Oct-25 22:53 UTC.
Position N 35°33' E 139°58'.

Length 100 m; draft 4.6 m.

Type: Ship. MMSI: 636090235.

Date/timePositionNaut miles runAvg speedWind from/ knotsBaromVisibWave heightAir tempDewpointWater temp
2014-Oct-25 18:11N 35°33' E 139°58'0 0.0
2014-Oct-25 17:29N 35°33' E 139°58'6 6.6
2014-Oct-25 16:34N 35°29' E 139°53'1312.5
2014-Oct-25 15:33N 35°19' E 139°44'1110.9
2014-Oct-25 14:33N 35°08' E 139°46'10 9.1
2014-Oct-25 13:26N 35°01' E 139°38'  
2014-Oct-18 19:23N 35°06' E 139°43'1012.0
2014-Oct-18 18:34N 35°15' E 139°46'1110.6
2014-Oct-18 17:34N 35°26' E 139°45'1313.0
2014-Oct-18 16:34N 35°31' E 139°60'0 0.0
2014-Oct-18 03:28N 35°31' E 140°00'1 0.9
2014-Oct-18 02:13N 35°31' E 139°59'0 0.0
2014-Oct-18 00:06N 35°31' E 139°59'0 0.0
2014-Oct-17 22:32N 35°31' E 139°59'0 0.1
2014-Oct-17 21:32N 35°31' E 139°59'0 0.2
2014-Oct-17 19:33N 35°30' E 139°59'1111.6
2014-Oct-17 18:34N 35°25' E 139°47'1110.9
2014-Oct-17 17:34N 35°14' E 139°47'1010.2
2014-Oct-17 16:34N 35°04' E 139°43'  

Dump ship's entire track history